Time;durP1;ratioP1;P1;durP2;ratioP2;P2;SDS_P1;SDS_P2;PMS_P1;PMS_P2;Temp;Humidity;BMP_temperature;BMP_pressure;BME280_temperature;BME280_humidity;BME280_pressure;Samples;Min_cycle;Max_cycle;Signal;HPM_P1;HPM_P2
2022/03/31 00:02:12;;;;;;;0.90;0.90;;;-5.50;99.90;;;;;;5033358;28;20196;-67
2022/03/31 00:04:38;;;;;;;0.80;0.80;;;-5.60;99.90;;;;;;5032303;28;20204;-67
2022/03/31 00:07:07;;;;;;;0.90;0.90;;;-5.70;99.90;;;;;;5035665;28;20198;-67
2022/03/31 00:09:33;;;;;;;0.73;0.73;;;-5.70;99.90;;;;;;5051859;28;20648;-67
2022/03/31 00:11:59;;;;;;;0.80;0.80;;;-5.80;99.90;;;;;;5053148;28;20205;-67
2022/03/31 00:14:28;;;;;;;0.90;0.90;;;-5.80;99.90;;;;;;5052883;28;20198;-67
2022/03/31 00:16:54;;;;;;;0.90;0.90;;;-5.90;99.90;;;;;;5033146;28;20616;-67
2022/03/31 00:19:20;;;;;;;0.90;0.90;;;-6.00;99.90;;;;;;5048320;28;20728;-67
2022/03/31 00:32:29;;;;;;;0.90;0.90;;;-6.20;99.90;;;;;;5032902;28;20232;-67
2022/03/31 00:34:54;;;;;;;0.90;0.90;;;-6.30;99.90;;;;;;5032796;28;20641;-67
2022/03/31 00:37:20;;;;;;;0.90;0.90;;;-6.40;99.90;;;;;;5032560;28;20284;-67
2022/03/31 00:39:48;;;;;;;0.90;0.90;;;-6.40;99.90;;;;;;5032849;28;20201;-67
2022/03/31 00:42:15;;;;;;;0.90;0.90;;;-6.40;99.90;;;;;;5032827;28;20277;-67
2022/03/31 00:44:44;;;;;;;0.90;0.90;;;-6.40;99.90;;;;;;5047788;28;20195;-67
2022/03/31 00:47:10;;;;;;;0.90;0.90;;;-6.40;99.90;;;;;;5044386;28;20201;-67
2022/03/31 00:49:36;;;;;;;0.90;0.90;;;-6.40;99.90;;;;;;5067606;28;20201;-67
2022/03/31 00:52:02;;;;;;;0.80;0.80;;;-6.30;99.90;;;;;;5067728;28;20194;-67
2022/03/31 00:54:29;;;;;;;0.90;0.90;;;-6.10;99.90;;;;;;5067561;28;20556;-67
2022/03/31 00:56:56;;;;;;;0.90;0.90;;;-6.00;99.90;;;;;;5052524;28;20204;-67
2022/03/31 00:59:22;;;;;;;0.97;0.97;;;-5.80;99.90;;;;;;5052280;28;20190;-67
2022/03/31 01:01:48;;;;;;;1.00;1.00;;;-5.80;99.90;;;;;;5067998;28;20201;-67
2022/03/31 01:06:49;;;;;;;0.90;0.90;;;-5.90;99.90;;;;;;5030657;28;20677;-80
2022/03/31 01:11:50;;;;;;;0.90;0.90;;;-6.10;99.90;;;;;;5135040;22;20704;-74
2022/03/31 01:17:00;;;;;;;0.90;0.90;;;-6.20;99.90;;;;;;1335559;26;20249;-77
2022/03/31 01:22:53;;;;;;;0.90;0.90;;;-6.40;99.90;;;;;;4997935;28;20202;-78
2022/03/31 01:25:19;;;;;;;4.20;1.93;;;-6.40;99.90;;;;;;4998000;28;20199;-78
2022/03/31 01:27:46;;;;;;;1.00;1.00;;;-6.50;99.90;;;;;;4980646;28;20195;-77
2022/03/31 01:30:15;;;;;;;0.97;0.97;;;-6.40;99.90;;;;;;4984417;28;20242;-77
2022/03/31 01:32:44;;;;;;;0.90;0.90;;;-6.40;99.90;;;;;;4980323;28;20230;-78
2022/03/31 01:35:10;;;;;;;0.90;0.90;;;-6.40;99.90;;;;;;4980154;28;20712;-77
2022/03/31 01:37:36;;;;;;;0.90;0.90;;;-6.40;99.90;;;;;;4979884;28;20215;-78
2022/03/31 01:40:03;;;;;;;0.90;0.90;;;-6.50;99.90;;;;;;4980216;28;20290;-78
2022/03/31 01:42:30;;;;;;;0.93;0.93;;;-6.50;99.90;;;;;;4997521;28;20191;-77
2022/03/31 01:44:57;;;;;;;0.80;0.80;;;-6.50;99.90;;;;;;4997566;28;20195;-77
2022/03/31 01:47:22;;;;;;;0.97;0.97;;;-6.60;99.90;;;;;;4979194;28;20207;-78
2022/03/31 01:49:48;;;;;;;0.90;0.90;;;-6.60;99.90;;;;;;4993826;28;20198;-77
2022/03/31 01:52:14;;;;;;;0.80;0.80;;;-6.50;99.90;;;;;;4999433;28;20237;-79
2022/03/31 01:54:41;;;;;;;0.90;0.90;;;-6.50;99.90;;;;;;4999594;28;20230;-78
2022/03/31 01:57:06;;;;;;;0.93;0.93;;;-6.40;99.90;;;;;;4999387;28;20217;-77
2022/03/31 01:59:38;;;;;;;0.90;0.90;;;-6.10;99.90;;;;;;4996954;28;20207;-77
2022/03/31 02:02:05;;;;;;;0.80;0.80;;;-5.80;99.90;;;;;;4998535;28;20205;-77
2022/03/31 02:04:31;;;;;;;0.90;0.90;;;-5.70;99.90;;;;;;5016873;28;20555;-77
2022/03/31 02:06:56;;;;;;;1.00;1.00;;;-5.70;99.90;;;;;;4999401;28;20665;-78
2022/03/31 02:09:23;;;;;;;1.00;1.00;;;-5.70;99.90;;;;;;4999044;28;20203;-78
2022/03/31 02:11:49;;;;;;;1.00;1.00;;;-5.90;99.90;;;;;;5016770;28;20248;-78
2022/03/31 02:14:15;;;;;;;1.00;1.00;;;-6.00;99.90;;;;;;4999136;28;20245;-78
2022/03/31 02:16:41;;;;;;;0.90;0.90;;;-6.10;99.90;;;;;;5015983;28;20269;-78
2022/03/31 02:19:07;;;;;;;1.00;1.00;;;-6.30;99.90;;;;;;4999175;28;20234;-77
2022/03/31 02:21:33;;;;;;;0.90;0.90;;;-6.40;99.90;;;;;;5016261;28;20213;-78
2022/03/31 02:23:59;;;;;;;1.00;1.00;;;-6.50;99.90;;;;;;4998176;28;20614;-78
2022/03/31 02:26:25;;;;;;;0.90;0.90;;;-6.70;99.90;;;;;;4997826;28;20203;-77
2022/03/31 02:28:51;;;;;;;2.80;1.67;;;-6.70;99.90;;;;;;4999010;28;20549;-77
2022/03/31 02:31:17;;;;;;;0.90;0.90;;;-6.80;99.90;;;;;;4995439;28;20712;-78
2022/03/31 02:33:43;;;;;;;13.83;4.80;;;-6.70;99.90;;;;;;4995612;28;20263;-77
2022/03/31 02:36:09;;;;;;;0.90;0.90;;;-6.80;99.90;;;;;;4979317;28;20251;-78
2022/03/31 02:38:36;;;;;;;0.80;0.80;;;-6.70;99.90;;;;;;4995867;28;20191;-77
2022/03/31 02:41:05;;;;;;;0.93;0.93;;;-6.70;99.90;;;;;;4996863;28;20728;-78
2022/03/31 02:43:31;;;;;;;1.00;1.00;;;-6.70;99.90;;;;;;4978897;28;20202;-78
2022/03/31 02:45:58;;;;;;;0.90;0.90;;;-6.70;99.90;;;;;;4996503;28;20188;-78
2022/03/31 02:48:24;;;;;;;1.00;1.00;;;-6.70;99.90;;;;;;4981816;28;20241;-78
2022/03/31 02:50:50;;;;;;;1.10;1.10;;;-6.70;99.90;;;;;;4998914;28;20713;-77
2022/03/31 02:56:00;;;;;;;0.90;0.90;;;-6.90;99.90;;;;;;5012529;28;20242;-77
2022/03/31 02:58:26;;;;;;;0.90;0.90;;;-6.90;99.90;;;;;;4995219;28;20534;-78
2022/03/31 03:00:52;;;;;;;1.40;1.30;;;-6.90;99.90;;;;;;5002017;28;20338;-77
2022/03/31 03:03:19;;;;;;;0.90;0.90;;;-7.00;99.90;;;;;;5014597;28;20692;-78
2022/03/31 03:05:45;;;;;;;0.90;0.90;;;-7.10;99.90;;;;;;5015404;28;20190;-78
2022/03/31 03:08:12;;;;;;;0.90;0.90;;;-7.10;99.90;;;;;;4998147;28;20664;-78
2022/03/31 03:10:38;;;;;;;0.90;0.90;;;-7.10;99.90;;;;;;4998033;28;20317;-78
2022/03/31 03:13:04;;;;;;;0.87;0.87;;;-7.10;99.90;;;;;;4998157;28;20285;-77
2022/03/31 03:15:30;;;;;;;0.80;0.80;;;-7.10;99.90;;;;;;4997862;28;20222;-78
2022/03/31 03:17:55;;;;;;;0.90;0.90;;;-7.20;99.90;;;;;;4997947;28;20238;-77
2022/03/31 03:20:24;;;;;;;0.90;0.90;;;-7.20;99.90;;;;;;4997752;28;20191;-78
2022/03/31 03:22:51;;;;;;;0.90;0.90;;;-7.10;99.90;;;;;;5015393;28;20278;-77
2022/03/31 03:25:18;;;;;;;1.10;1.10;;;-7.20;99.90;;;;;;4997781;28;20607;-78
2022/03/31 03:27:46;;;;;;;0.87;0.87;;;-7.20;99.90;;;;;;4997936;28;20290;-77
2022/03/31 03:30:12;;;;;;;0.90;0.90;;;-7.00;99.90;;;;;;4994478;28;20196;-78
2022/03/31 03:32:38;;;;;;;0.90;0.90;;;-6.90;99.90;;;;;;4977987;28;20199;-78
2022/03/31 03:35:09;;;;;;;0.90;0.90;;;-6.80;99.90;;;;;;4995344;28;20690;-77
2022/03/31 03:37:37;;;;;;;0.97;0.97;;;-6.50;99.90;;;;;;4976799;28;20219;-79
2022/03/31 03:40:05;;;;;;;0.80;0.80;;;-6.40;99.90;;;;;;4977941;28;20210;-77
2022/03/31 03:42:33;;;;;;;0.90;0.90;;;-6.10;99.90;;;;;;4995211;28;20228;-77
2022/03/31 03:45:00;;;;;;;0.93;0.93;;;-5.90;99.90;;;;;;4977974;28;20208;-77
2022/03/31 03:47:26;;;;;;;0.90;0.90;;;-5.70;99.90;;;;;;4995333;28;20722;-77
2022/03/31 03:49:52;;;;;;;1.00;1.00;;;-5.60;99.90;;;;;;4992474;28;20206;-77
2022/03/31 03:52:18;;;;;;;0.87;0.87;;;-5.70;99.90;;;;;;4997227;28;20210;-78
2022/03/31 03:54:44;;;;;;;1.00;1.00;;;-5.60;99.90;;;;;;4997196;28;20199;-77
2022/03/31 03:57:10;;;;;;;0.90;0.90;;;-5.60;99.90;;;;;;4997044;28;20308;-77
2022/03/31 03:59:36;;;;;;;0.80;0.80;;;-5.50;99.90;;;;;;4996985;28;20194;-77
2022/03/31 04:02:02;;;;;;;0.90;0.90;;;-5.50;99.90;;;;;;4997056;28;20268;-76
2022/03/31 04:04:29;;;;;;;0.90;0.90;;;-5.40;99.90;;;;;;4996815;28;20614;-78
2022/03/31 04:06:57;;;;;;;0.90;0.90;;;-5.40;99.90;;;;;;5014831;28;20201;-77
2022/03/31 04:09:23;;;;;;;0.90;0.90;;;-5.40;99.90;;;;;;4996534;28;20203;-78
2022/03/31 04:11:49;;;;;;;0.90;0.90;;;-5.40;99.90;;;;;;4996633;28;20226;-77
2022/03/31 04:14:15;;;;;;;0.87;0.87;;;-5.40;99.90;;;;;;4996232;28;20199;-77
2022/03/31 04:16:41;;;;;;;0.90;0.90;;;-5.40;99.90;;;;;;5013869;28;20672;-78
2022/03/31 04:19:09;;;;;;;0.80;0.80;;;-5.30;99.90;;;;;;5014675;28;20199;-77
2022/03/31 04:21:37;;;;;;;0.90;0.90;;;-5.40;99.90;;;;;;4996482;28;20191;-78
2022/03/31 04:24:04;;;;;;;0.90;0.90;;;-5.60;99.90;;;;;;4996893;28;20227;-78
2022/03/31 04:26:30;;;;;;;1.00;1.00;;;-5.70;99.90;;;;;;4996840;28;20298;-78
2022/03/31 04:28:56;;;;;;;0.90;0.90;;;-5.90;99.90;;;;;;5013083;28;20290;-78
2022/03/31 04:31:22;;;;;;;0.90;0.90;;;-6.00;99.90;;;;;;5014194;28;20407;-78
2022/03/31 04:33:48;;;;;;;0.90;0.90;;;-6.20;99.90;;;;;;5014211;28;20221;-77
2022/03/31 04:36:14;;;;;;;0.80;0.80;;;-6.30;99.90;;;;;;5014130;28;20693;-78
2022/03/31 04:38:40;;;;;;;0.90;0.90;;;-6.40;99.90;;;;;;4996634;28;20214;-78
2022/03/31 04:41:06;;;;;;;1.30;1.23;;;-6.50;99.90;;;;;;4997187;28;20206;-77
2022/03/31 04:43:32;;;;;;;0.80;0.80;;;-6.60;99.90;;;;;;4996482;28;20254;-78
2022/03/31 04:45:58;;;;;;;1.00;1.00;;;-6.60;99.90;;;;;;4996007;28;20207;-78
2022/03/31 04:48:24;;;;;;;0.93;0.93;;;-6.70;99.90;;;;;;5013359;28;20195;-77
2022/03/31 04:50:50;;;;;;;0.83;0.83;;;-6.70;99.90;;;;;;4996462;28;20225;-78
2022/03/31 04:53:17;;;;;;;0.90;0.90;;;-6.70;99.90;;;;;;5012890;28;20198;-78
2022/03/31 04:55:43;;;;;;;0.90;0.90;;;-6.70;99.90;;;;;;5013102;28;20195;-78
2022/03/31 04:58:08;;;;;;;0.87;0.87;;;-6.70;99.90;;;;;;4977127;28;20268;-78
2022/03/31 05:00:34;;;;;;;0.90;0.90;;;-6.60;99.90;;;;;;4976822;28;20204;-78
2022/03/31 05:03:00;;;;;;;1.10;1.10;;;-6.50;99.90;;;;;;4994704;28;20196;-78
2022/03/31 05:05:26;;;;;;;0.90;0.90;;;-6.50;99.90;;;;;;4994242;28;20192;-78
2022/03/31 05:07:52;;;;;;;0.90;0.90;;;-6.40;99.90;;;;;;4994402;28;20281;-78
2022/03/31 05:10:19;;;;;;;0.90;0.90;;;-6.40;99.90;;;;;;4976937;28;20195;-76
2022/03/31 05:12:44;;;;;;;0.90;0.90;;;-6.30;99.90;;;;;;4982994;28;20199;-79
2022/03/31 05:15:11;;;;;;;0.90;0.90;;;-6.20;99.90;;;;;;4995842;28;20195;-79
2022/03/31 05:17:39;;;;;;;0.90;0.90;;;-6.10;99.90;;;;;;4995543;28;20689;-79
2022/03/31 05:20:07;;;;;;;0.90;0.90;;;-6.10;99.90;;;;;;4995641;28;20558;-79
2022/03/31 05:22:35;;;;;;;1.00;1.00;;;-5.90;99.90;;;;;;5012831;28;20191;-78
2022/03/31 05:25:01;;;;;;;1.00;1.00;;;-5.80;99.90;;;;;;4996210;28;20257;-78
2022/03/31 05:27:26;;;;;;;0.80;0.80;;;-5.70;99.90;;;;;;4995960;28;20203;-78
2022/03/31 05:29:52;;;;;;;0.97;0.97;;;-5.50;99.90;;;;;;5013679;28;20248;-78
2022/03/31 05:32:17;;;;;;;0.83;0.83;;;-5.40;99.90;;;;;;4996054;28;20695;-79
2022/03/31 05:34:44;;;;;;;0.90;0.90;;;-5.30;99.90;;;;;;4995996;28;20194;-79
2022/03/31 05:37:10;;;;;;;0.80;0.80;;;-5.10;99.90;;;;;;5013711;28;20214;-79
2022/03/31 05:39:35;;;;;;;0.90;0.90;;;-4.90;99.90;;;;;;4996061;28;20199;-78
2022/03/31 05:42:02;;;;;;;1.42;1.33;;;-4.80;99.90;;;;;;5013826;28;20198;-78
2022/03/31 05:44:28;;;;;;;0.90;0.90;;;-4.60;99.90;;;;;;4994159;28;20198;-78
2022/03/31 05:46:54;;;;;;;0.90;0.90;;;-4.50;99.90;;;;;;4992693;28;20200;-79
2022/03/31 05:49:19;;;;;;;0.90;0.90;;;-4.30;99.90;;;;;;5003413;28;20675;-79
2022/03/31 05:51:45;;;;;;;0.90;0.90;;;-4.20;99.90;;;;;;5011241;28;20286;-78
2022/03/31 05:54:11;;;;;;;0.90;0.90;;;-4.00;99.90;;;;;;5012549;28;20227;-79
2022/03/31 05:56:37;;;;;;;0.90;0.90;;;-3.90;99.90;;;;;;4994618;28;20210;-78
2022/03/31 05:59:04;;;;;;;0.90;0.90;;;-3.70;99.90;;;;;;5011266;28;20203;-78
2022/03/31 06:01:30;;;;;;;0.85;0.85;;;-3.60;99.90;;;;;;5011307;28;20207;-79
2022/03/31 06:03:56;;;;;;;1.38;1.30;;;-3.50;99.90;;;;;;5016912;28;20203;-78
2022/03/31 06:06:23;;;;;;;0.80;0.80;;;-3.40;99.90;;;;;;4999178;28;20207;-79
2022/03/31 06:08:50;;;;;;;0.80;0.80;;;-3.30;99.90;;;;;;5015494;28;20207;-78
2022/03/31 06:11:15;;;;;;;0.85;0.85;;;-3.20;99.90;;;;;;4999254;28;20195;-78
2022/03/31 06:13:41;;;;;;;0.82;0.82;;;-3.10;99.90;;;;;;4998980;28;20198;-79
2022/03/31 06:16:07;;;;;;;0.80;0.80;;;-3.00;99.90;;;;;;5015561;28;20195;-78
2022/03/31 06:18:33;;;;;;;0.70;0.70;;;-2.90;99.90;;;;;;4997989;28;20241;-78
2022/03/31 06:20:58;;;;;;;0.80;0.80;;;-2.80;99.90;;;;;;5014456;28;20195;-79
2022/03/31 06:23:25;;;;;;;0.80;0.80;;;-2.70;99.90;;;;;;5014029;28;20696;-78
2022/03/31 06:25:52;;;;;;;1.27;1.17;;;-2.60;99.90;;;;;;5015465;28;20192;-78
2022/03/31 06:28:18;;;;;;;0.90;0.90;;;-2.50;99.90;;;;;;4997860;28;20681;-80
2022/03/31 06:30:47;;;;;;;0.80;0.80;;;-2.40;99.90;;;;;;4994343;28;20200;-78
2022/03/31 06:33:15;;;;;;;0.88;0.88;;;-2.30;99.90;;;;;;4995909;28;20187;-79
2022/03/31 06:35:41;;;;;;;0.70;0.70;;;-2.30;99.90;;;;;;4996525;28;20195;-79
2022/03/31 06:38:07;;;;;;;0.80;0.80;;;-2.20;99.90;;;;;;4979230;28;20584;-78
2022/03/31 06:40:37;;;;;;;0.80;0.80;;;-2.10;99.90;;;;;;4996344;28;20202;-79
2022/03/31 06:43:08;;;;;;;0.70;0.70;;;-2.00;99.90;;;;;;4995321;28;20674;-78
2022/03/31 06:45:34;;;;;;;0.90;0.90;;;-1.80;99.90;;;;;;4995002;28;20207;-78
2022/03/31 06:48:02;;;;;;;0.77;0.77;;;-1.80;99.90;;;;;;4995369;28;20203;-78
2022/03/31 06:50:30;;;;;;;0.80;0.80;;;-1.70;99.90;;;;;;5014285;28;20199;-79
2022/03/31 06:52:58;;;;;;;0.77;0.77;;;-1.60;99.90;;;;;;4998052;28;20282;-78
2022/03/31 06:55:24;;;;;;;0.73;0.73;;;-1.60;99.90;;;;;;4997947;28;20293;-79
2022/03/31 06:57:49;;;;;;;0.80;0.80;;;-1.60;99.90;;;;;;5014448;28;20317;-79
2022/03/31 07:00:15;;;;;;;0.70;0.70;;;-1.50;99.90;;;;;;5015771;28;20627;-78
2022/03/31 07:02:41;;;;;;;0.80;0.80;;;-1.50;99.90;;;;;;4997765;28;20198;-79
2022/03/31 07:05:07;;;;;;;0.70;0.70;;;-1.40;99.90;;;;;;4992302;28;20287;-78
2022/03/31 07:07:33;;;;;;;0.75;0.75;;;-1.30;99.90;;;;;;4995264;28;20669;-78
2022/03/31 07:10:00;;;;;;;0.80;0.80;;;-1.30;99.90;;;;;;4996190;28;20242;-78
2022/03/31 07:12:26;;;;;;;0.75;0.75;;;-1.20;99.90;;;;;;4977908;28;20219;-78
2022/03/31 07:14:52;;;;;;;0.80;0.80;;;-1.10;99.90;;;;;;4994685;28;20199;-78
2022/03/31 07:17:17;;;;;;;0.82;0.82;;;-1.00;99.90;;;;;;4974844;28;20315;-79
2022/03/31 07:19:43;;;;;;;0.77;0.77;;;-0.90;99.90;;;;;;4975309;28;20199;-79
2022/03/31 07:22:09;;;;;;;0.80;0.80;;;-0.80;99.90;;;;;;4975670;28;20201;-78
2022/03/31 07:24:34;;;;;;;0.77;0.77;;;-0.70;99.90;;;;;;4974850;28;20204;-78
2022/03/31 07:27:01;;;;;;;0.70;0.70;;;-0.60;99.90;;;;;;4991316;28;20204;-78
2022/03/31 07:29:28;;;;;;;0.70;0.70;;;-0.60;99.90;;;;;;4976128;28;20279;-79
2022/03/31 07:31:53;;;;;;;0.70;0.70;;;-0.50;99.90;;;;;;4991353;28;20621;-78
2022/03/31 07:34:19;;;;;;;0.70;0.70;;;-0.40;99.90;;;;;;4991214;28;20189;-79
2022/03/31 07:36:45;;;;;;;0.80;0.80;;;-0.30;99.90;;;;;;4974783;28;20687;-79
2022/03/31 07:39:11;;;;;;;0.73;0.73;;;-0.20;99.90;;;;;;4990185;28;20287;-78
2022/03/31 07:41:48;;;;;;;0.70;0.70;;;-0.10;99.90;;;;;;4990556;28;20558;-78
2022/03/31 07:44:40;;;;;;;0.70;0.70;;;0.10;99.90;;;;;;4976655;28;20671;-79
2022/03/31 07:47:06;;;;;;;0.50;0.50;;;0.20;99.90;;;;;;4974797;28;20203;-78
2022/03/31 07:49:32;;;;;;;0.60;0.60;;;0.20;99.90;;;;;;4973639;28;20220;-79
2022/03/31 07:51:58;;;;;;;0.68;0.68;;;0.30;99.90;;;;;;4974614;28;20204;-78
2022/03/31 07:54:24;;;;;;;1.55;1.45;;;0.40;99.90;;;;;;4974437;28;20236;-79
2022/03/31 07:56:51;;;;;;;0.60;0.60;;;0.60;99.90;;;;;;4984356;28;20220;-78
2022/03/31 07:59:23;;;;;;;0.70;0.70;;;0.60;99.90;;;;;;4994060;28;20206;-78
2022/03/31 08:01:50;;;;;;;0.70;0.70;;;0.80;99.90;;;;;;4994138;28;20199;-79
2022/03/31 08:04:16;;;;;;;0.70;0.70;;;0.90;99.90;;;;;;4992788;28;20203;-79
2022/03/31 08:06:43;;;;;;;0.70;0.70;;;1.00;99.90;;;;;;4993800;28;20206;-80
2022/03/31 08:09:12;;;;;;;0.60;0.60;;;1.20;99.90;;;;;;4992692;28;20257;-78
2022/03/31 08:11:38;;;;;;;0.70;0.70;;;1.30;99.90;;;;;;4993829;28;20196;-78
2022/03/31 08:14:04;;;;;;;0.63;0.63;;;1.40;99.90;;;;;;4992740;28;20203;-78
2022/03/31 08:16:31;;;;;;;0.70;0.70;;;1.60;99.90;;;;;;4992493;28;20227;-79
2022/03/31 08:18:57;;;;;;;0.68;0.68;;;1.70;99.90;;;;;;4996581;28;20550;-79
2022/03/31 08:21:23;;;;;;;0.65;0.65;;;1.80;99.90;;;;;;4996285;28;20278;-79
2022/03/31 08:23:49;;;;;;;0.63;0.63;;;1.90;99.90;;;;;;4996253;28;20205;-79
2022/03/31 08:26:14;;;;;;;0.75;0.75;;;2.10;99.90;;;;;;5011570;28;20191;-79
2022/03/31 08:28:40;;;;;;;0.85;0.85;;;2.20;99.90;;;;;;4996519;28;20293;-79
2022/03/31 08:31:06;;;;;;;0.50;0.50;;;2.30;99.90;;;;;;4996710;28;20250;-79
2022/03/31 08:33:32;;;;;;;0.60;0.60;;;2.50;99.90;;;;;;5013143;28;20562;-79
2022/03/31 08:35:58;;;;;;;0.63;0.63;;;2.60;99.90;;;;;;4996682;28;20556;-78
2022/03/31 08:38:23;;;;;;;0.60;0.60;;;2.60;99.90;;;;;;5000783;28;20245;-79
2022/03/31 08:40:50;;;;;;;0.50;0.50;;;2.70;99.90;;;;;;4995420;28;20195;-79
2022/03/31 08:43:17;;;;;;;0.52;0.52;;;2.90;99.90;;;;;;4996555;28;20199;-80
2022/03/31 08:45:45;;;;;;;0.80;0.80;;;3.00;99.90;;;;;;4996550;28;20217;-79
2022/03/31 08:48:11;;;;;;;0.70;0.70;;;3.00;99.90;;;;;;4997598;28;20199;-80
2022/03/31 08:50:38;;;;;;;0.60;0.60;;;3.10;99.90;;;;;;5012758;28;20206;-78
2022/03/31 08:53:04;;;;;;;0.60;0.60;;;3.40;99.90;;;;;;5011697;28;20207;-78
2022/03/31 08:55:30;;;;;;;0.50;0.50;;;3.80;99.90;;;;;;4995150;28;20205;-78
2022/03/31 08:57:55;;;;;;;0.68;0.68;;;4.30;99.90;;;;;;4995260;28;20690;-78
2022/03/31 09:00:23;;;;;;;0.70;0.70;;;4.60;99.90;;;;;;4994946;28;20206;-78
2022/03/31 09:03:07;;;;;;;0.55;0.55;;;4.70;99.90;;;;;;4995625;28;20194;-78
2022/03/31 09:05:38;;;;;;;0.52;0.52;;;4.80;98.30;;;;;;4987659;28;20198;-77
2022/03/31 09:08:09;;;;;;;0.50;0.50;;;4.80;98.70;;;;;;4976730;28;20646;-78
2022/03/31 09:10:52;;;;;;;0.50;0.50;;;4.80;96.70;;;;;;4976350;28;20199;-78
2022/03/31 09:13:35;;;;;;;0.60;0.60;;;4.70;96.20;;;;;;4976436;28;20203;-78
2022/03/31 09:16:11;;;;;;;0.70;0.70;;;4.80;95.00;;;;;;4976528;28;20210;-77
2022/03/31 09:18:39;;;;;;;0.73;0.73;;;4.90;94.10;;;;;;4976123;28;20266;-77
2022/03/31 09:21:07;;;;;;;0.60;0.60;;;5.10;94.90;;;;;;4976625;28;20227;-78
2022/03/31 09:23:41;;;;;;;1.15;1.00;;;5.40;94.30;;;;;;4976220;28;20204;-77
2022/03/31 09:26:12;;;;;;;0.55;0.55;;;5.50;93.10;;;;;;4976396;28;20607;-78
2022/03/31 09:28:38;;;;;;;0.60;0.60;;;5.60;92.80;;;;;;4976391;28;20203;-78
2022/03/31 09:31:08;;;;;;;0.52;0.52;;;5.60;92.70;;;;;;4987682;28;20196;-77
2022/03/31 09:33:45;;;;;;;0.60;0.60;;;5.60;91.00;;;;;;4992343;28;20200;-77
2022/03/31 09:36:21;;;;;;;0.60;0.60;;;5.30;91.10;;;;;;4994192;28;20241;-77
2022/03/31 09:38:53;;;;;;;0.70;0.70;;;5.70;92.10;;;;;;5012437;28;20293;-77
2022/03/31 09:41:30;;;;;;;0.63;0.63;;;6.10;91.60;;;;;;4999263;28;20194;-78
2022/03/31 09:43:58;;;;;;;0.60;0.60;;;6.20;89.90;;;;;;4999433;28;20241;-76
2022/03/31 09:46:36;;;;;;;0.60;0.60;;;6.30;83.80;;;;;;5016807;28;20202;-76
2022/03/31 09:49:23;;;;;;;0.60;0.60;;;6.40;86.00;;;;;;4999219;28;20202;-77
2022/03/31 09:51:55;;;;;;;0.73;0.73;;;6.50;87.20;;;;;;4999395;28;20249;-77
2022/03/31 09:54:26;;;;;;;0.60;0.60;;;6.70;84.00;;;;;;4998996;28;20305;-78
2022/03/31 09:56:53;;;;;;;0.63;0.63;;;6.60;84.50;;;;;;5016544;28;20241;-77
2022/03/31 09:59:19;;;;;;;0.80;0.80;;;6.60;83.80;;;;;;4999078;28;20199;-78
2022/03/31 10:01:45;;;;;;;0.70;0.70;;;6.60;84.50;;;;;;5015283;28;20560;-77
2022/03/31 10:04:12;;;;;;;0.57;0.57;;;6.60;83.00;;;;;;4999093;28;20198;-76
2022/03/31 10:06:42;;;;;;;0.60;0.60;;;6.80;84.80;;;;;;4998895;28;20604;-77
2022/03/31 10:09:12;;;;;;;0.70;0.70;;;7.00;84.70;;;;;;4998803;28;20666;-77
2022/03/31 10:11:44;;;;;;;0.60;0.60;;;7.20;85.50;;;;;;4998731;28;20230;-77
2022/03/31 10:14:25;;;;;;;0.60;0.60;;;7.50;82.50;;;;;;4999138;28;20604;-76
2022/03/31 10:17:05;;;;;;;0.63;0.63;;;7.40;84.80;;;;;;5016284;28;20237;-78
2022/03/31 10:19:36;;;;;;;0.70;0.70;;;7.60;81.00;;;;;;4998538;28;20249;-77
2022/03/31 10:24:41;;;;;;;0.68;0.68;;;7.30;82.00;;;;;;4995481;28;20199;-78
2022/03/31 10:24:57;;;;;;;0.60;0.60;;;7.60;82.90;;;;;;4996476;28;20199;-78
2022/03/31 10:27:28;;;;;;;0.60;0.60;;;7.40;78.80;;;;;;4996412;28;20200;-78
2022/03/31 10:29:55;;;;;;;0.60;0.60;;;6.60;77.60;;;;;;4984189;28;20203;-77
2022/03/31 10:32:23;;;;;;;0.70;0.70;;;6.90;75.30;;;;;;4997482;28;20217;-78
2022/03/31 10:34:54;;;;;;;0.60;0.60;;;7.20;81.30;;;;;;5000120;28;20195;-78
2022/03/31 10:37:35;;;;;;;0.60;0.60;;;8.00;76.60;;;;;;5016170;28;20273;-80
2022/03/31 10:40:07;;;;;;;0.70;0.70;;;8.40;77.30;;;;;;4998397;28;20245;-79
2022/03/31 10:42:33;;;;;;;0.70;0.70;;;8.30;75.90;;;;;;4997908;28;20195;-78
2022/03/31 10:45:13;;;;;;;0.70;0.70;;;7.50;74.50;;;;;;5015863;28;20693;-79
2022/03/31 10:47:43;;;;;;;0.60;0.60;;;7.20;75.10;;;;;;5015052;28;20195;-79
2022/03/31 10:50:22;;;;;;;0.60;0.60;;;7.40;80.10;;;;;;5014894;28;20194;-79
2022/03/31 10:53:00;;;;;;;0.60;0.60;;;7.70;75.30;;;;;;4997080;28;20234;-80
2022/03/31 10:55:34;;;;;;;0.70;0.70;;;7.20;76.10;;;;;;4997286;28;20195;-79
2022/03/31 10:58:00;;;;;;;0.60;0.60;;;6.50;77.30;;;;;;4997174;28;20211;-78
2022/03/31 11:00:26;;;;;;;0.70;0.70;;;5.90;77.20;;;;;;4996914;28;20205;-79
2022/03/31 11:02:54;;;;;;;0.60;0.60;;;5.40;77.50;;;;;;5011240;28;20199;-79
2022/03/31 11:05:25;;;;;;;0.60;0.60;;;5.20;79.90;;;;;;5014124;28;20684;-79
2022/03/31 11:08:05;;;;;;;0.63;0.63;;;5.40;82.00;;;;;;5015385;28;20187;-79
2022/03/31 11:10:41;;;;;;;0.60;0.60;;;5.60;81.50;;;;;;5014403;28;20541;-78
2022/03/31 11:13:07;;;;;;;0.70;0.70;;;6.70;82.70;;;;;;5015473;28;20198;-78
2022/03/31 11:15:34;;;;;;;0.60;0.60;;;7.20;78.50;;;;;;5013579;28;20583;-77
2022/03/31 11:18:00;;;;;;;1.35;1.15;;;7.20;75.00;;;;;;5013597;28;20235;-75
2022/03/31 11:20:27;;;;;;;0.60;0.60;;;7.50;77.30;;;;;;5009936;28;20203;-78
2022/03/31 11:23:03;;;;;;;0.60;0.60;;;8.60;79.10;;;;;;4997789;28;20286;-75
2022/03/31 11:25:29;;;;;;;0.70;0.70;;;8.40;73.40;;;;;;4997361;28;20217;-75
2022/03/31 11:27:58;;;;;;;0.80;0.80;;;8.10;71.60;;;;;;5015263;28;20661;-75
2022/03/31 11:30:29;;;;;;;0.90;0.90;;;7.80;69.70;;;;;;4996915;28;20354;-75
2022/03/31 11:32:56;;;;;;;0.60;0.60;;;7.00;71.80;;;;;;5015288;28;20602;-75
2022/03/31 11:35:27;;;;;;;0.70;0.70;;;6.20;72.80;;;;;;4995191;28;20713;-75
2022/03/31 11:38:02;;;;;;;0.70;0.70;;;5.50;72.90;;;;;;4994973;28;20207;-75
2022/03/31 11:41:24;;;;;;;0.60;0.60;;;5.10;74.70;;;;;;4998778;28;20195;-79
2022/03/31 11:43:53;;;;;;;0.52;0.52;;;4.80;75.40;;;;;;4995545;28;20544;-77
2022/03/31 11:46:19;;;;;;;0.60;0.60;;;4.50;78.50;;;;;;4995308;28;20196;-78
2022/03/31 11:48:49;;;;;;;0.65;0.65;;;4.40;77.00;;;;;;4983198;28;20210;-77
2022/03/31 11:51:15;;;;;;;0.70;0.70;;;4.40;74.80;;;;;;4996905;28;20649;-78
2022/03/31 11:53:47;;;;;;;0.63;0.63;;;4.40;76.30;;;;;;4996174;28;20222;-77
2022/03/31 11:56:21;;;;;;;0.90;0.90;;;4.40;73.90;;;;;;5014704;28;20187;-78
2022/03/31 11:58:53;;;;;;;0.70;0.70;;;5.20;78.50;;;;;;4997083;28;20563;-78
2022/03/31 12:01:45;;;;;;;0.70;0.70;;;6.70;80.30;;;;;;4991596;28;20680;-79
2022/03/31 12:04:38;;;;;;;0.50;0.50;;;7.90;72.30;;;;;;4976838;28;20218;-78
2022/03/31 12:07:04;;;;;;;0.60;0.60;;;9.30;71.80;;;;;;4991169;28;20302;-78
2022/03/31 12:09:30;;;;;;;0.60;0.60;;;9.40;64.80;;;;;;4976448;28;20678;-78
2022/03/31 12:11:57;;;;;;;0.60;0.60;;;10.20;64.50;;;;;;4995190;28;20226;-78
2022/03/31 12:14:28;;;;;;;0.60;0.60;;;10.70;68.30;;;;;;4977356;28;20223;-78
2022/03/31 12:16:56;;;;;;;0.60;0.60;;;10.70;61.50;;;;;;4976993;28;20227;-78
2022/03/31 12:19:23;;;;;;;0.60;0.60;;;10.30;61.10;;;;;;4977302;28;20192;-78
2022/03/31 12:21:58;;;;;;;0.60;0.60;;;9.40;59.40;;;;;;4977230;28;20245;-78
2022/03/31 12:24:24;;;;;;;0.70;0.70;;;8.40;60.40;;;;;;4977135;28;20210;-78
2022/03/31 12:27:01;;;;;;;0.60;0.60;;;7.20;65.30;;;;;;5005031;28;20286;-78
2022/03/31 12:29:31;;;;;;;0.70;0.70;;;6.70;68.50;;;;;;4978474;28;20238;-78
2022/03/31 12:32:14;;;;;;;0.70;0.70;;;6.30;70.40;;;;;;4977434;28;20715;-77
2022/03/31 12:34:54;;;;;;;0.63;0.63;;;5.90;73.70;;;;;;4994511;28;20221;-76
2022/03/31 12:37:30;;;;;;;0.70;0.70;;;5.30;76.80;;;;;;4994206;28;20238;-78
2022/03/31 12:39:57;;;;;;;1.80;1.27;;;5.00;79.50;;;;;;4993272;28;20219;-75
2022/03/31 12:42:23;;;;;;;1.05;1.05;;;4.70;80.10;;;;;;4993038;28;20654;-77
2022/03/31 12:44:49;;;;;;;0.68;0.68;;;4.50;79.50;;;;;;4996225;28;20211;-77
2022/03/31 12:47:22;;;;;;;1.10;1.00;;;4.60;80.50;;;;;;4996542;28;20645;-77
2022/03/31 12:49:48;;;;;;;0.52;0.52;;;5.40;82.30;;;;;;4996383;28;20198;-77
2022/03/31 12:52:20;;;;;;;0.50;0.50;;;6.30;76.20;;;;;;5014003;28;20207;-78
2022/03/31 12:54:59;;;;;;;0.60;0.60;;;7.20;75.20;;;;;;4996307;28;20237;-78
2022/03/31 12:57:26;;;;;;;0.60;0.60;;;8.00;70.80;;;;;;4996449;28;20305;-78
2022/03/31 13:00:14;;;;;;;0.60;0.60;;;8.30;69.40;;;;;;5013755;28;20187;-78
2022/03/31 13:02:43;;;;;;;0.52;0.52;;;8.60;69.20;;;;;;4995548;28;20253;-78
2022/03/31 13:05:09;;;;;;;0.70;0.70;;;9.00;67.40;;;;;;4996229;28;20676;-77
2022/03/31 13:07:35;;;;;;;0.60;0.60;;;9.50;66.80;;;;;;4995768;28;20206;-77
2022/03/31 13:10:06;;;;;;;0.60;0.60;;;9.70;65.80;;;;;;5012112;28;20195;-77
2022/03/31 13:12:32;;;;;;;0.60;0.60;;;9.90;57.60;;;;;;4998771;28;20293;-77
2022/03/31 13:15:00;;;;;;;0.60;0.60;;;9.50;60.30;;;;;;5017523;28;20561;-78
2022/03/31 13:17:27;;;;;;;0.50;0.50;;;9.20;62.00;;;;;;4999641;28;20226;-78
2022/03/31 13:19:52;;;;;;;0.57;0.57;;;9.20;61.30;;;;;;4999898;28;20575;-78
2022/03/31 13:22:24;;;;;;;0.70;0.70;;;9.00;62.60;;;;;;5014901;28;20205;-78